Time;durP1;ratioP1;P1;durP2;ratioP2;P2;SDS_P1;SDS_P2;PMS_P1;PMS_P2;Temp;Humidity;BMP_temperature;BMP_pressure;BME280_temperature;BME280_humidity;BME280_pressure;Samples;Min_cycle;Max_cycle;Signal;HPM_P1;HPM_P2
2022/01/08 00:00:40;;;;;;;10.15;3.30;;;;;;;-0.47;100.00;101097.88;5065375;28;20488;-74
2022/01/08 00:03:08;;;;;;;8.77;3.25;;;;;;;-0.42;100.00;101096.22;5065053;28;20079;-76
2022/01/08 00:05:37;;;;;;;9.75;3.88;;;;;;;-0.48;100.00;101108.31;5065592;28;20053;-74
2022/01/08 00:08:05;;;;;;;8.70;3.08;;;;;;;-0.40;100.00;101104.97;5070005;28;20475;-74
2022/01/08 00:10:34;;;;;;;7.60;3.17;;;;;;;-0.52;100.00;101104.78;5067213;28;20060;-74
2022/01/08 00:13:04;;;;;;;16.98;4.13;;;;;;;-0.46;100.00;101111.84;5066817;28;20251;-73
2022/01/08 00:15:33;;;;;;;17.90;4.60;;;;;;;-0.57;100.00;101117.78;5062347;28;20068;-74
2022/01/08 00:18:02;;;;;;;12.50;4.82;;;;;;;-0.49;100.00;101110.06;5066976;28;20040;-74
2022/01/08 00:20:30;;;;;;;11.20;3.85;;;;;;;-0.56;100.00;101118.69;5064037;28;20079;-73
2022/01/08 00:22:58;;;;;;;10.20;3.35;;;;;;;-0.54;100.00;101105.63;5067240;28;20049;-73
2022/01/08 00:25:26;;;;;;;10.65;3.30;;;;;;;-0.61;100.00;101104.63;5062310;28;20056;-73
2022/01/08 00:27:53;;;;;;;8.77;3.00;;;;;;;-0.53;100.00;101118.72;5065189;28;20135;-74
2022/01/08 00:30:21;;;;;;;11.23;3.05;;;;;;;-0.54;100.00;101122.22;5063332;28;20175;-74
2022/01/08 00:32:49;;;;;;;6.70;2.92;;;;;;;-0.51;100.00;101124.00;5066639;28;20076;-74
2022/01/08 00:35:18;;;;;;;10.60;3.42;;;;;;;-0.57;100.00;101114.31;5065564;28;20044;-73
2022/01/08 00:37:46;;;;;;;13.77;4.15;;;;;;;-0.62;100.00;101114.22;5065988;28;20051;-73
2022/01/08 00:40:15;;;;;;;8.30;2.90;;;;;;;-0.61;100.00;101113.38;5062831;28;20490;-74
2022/01/08 00:42:42;;;;;;;7.22;2.58;;;;;;;-0.69;100.00;101116.72;5063947;28;20431;-74
2022/01/08 00:45:11;;;;;;;8.45;3.05;;;;;;;-0.80;100.00;101113.88;5068974;28;20110;-74
2022/01/08 00:47:39;;;;;;;11.48;3.30;;;;;;;-0.65;100.00;101110.66;5064001;28;21611;-73
2022/01/08 00:50:08;;;;;;;8.98;3.00;;;;;;;-0.67;100.00;101109.75;5064973;28;20254;-75
2022/01/08 00:52:37;;;;;;;9.27;3.42;;;;;;;-0.65;100.00;101097.53;5064825;28;20295;-75
2022/01/08 00:55:07;;;;;;;8.25;2.88;;;;;;;-0.64;100.00;101100.19;5064136;28;20079;-73
2022/01/08 00:57:35;;;;;;;7.38;2.42;;;;;;;-0.60;100.00;101111.63;5064223;28;20049;-73
2022/01/08 01:00:05;;;;;;;7.78;2.67;;;;;;;-0.47;100.00;101107.50;5066875;28;20464;-73
2022/01/08 01:02:33;;;;;;;10.77;2.90;;;;;;;-0.29;100.00;101106.91;5063618;28;20056;-73
2022/01/08 01:05:25;;;;;;;8.25;2.85;;;;;;;-0.34;100.00;101125.19;5066300;28;20055;-73
2022/01/08 01:07:54;;;;;;;10.52;3.17;;;;;;;-0.32;100.00;101118.25;5059031;28;20079;-74
2022/01/08 01:10:22;;;;;;;6.32;2.40;;;;;;;-0.26;100.00;101126.19;5065204;28;20484;-74
2022/01/08 01:12:51;;;;;;;11.27;2.70;;;;;;;-0.24;100.00;101128.84;5063771;28;20458;-73
2022/01/08 01:15:19;;;;;;;4.10;2.10;;;;;;;-0.32;100.00;101128.72;5068188;28;20059;-74
2022/01/08 01:18:12;;;;;;;11.10;2.65;;;;;;;-0.38;100.00;101113.75;5069002;28;20055;-75
2022/01/08 01:20:40;;;;;;;6.97;2.33;;;;;;;-0.51;100.00;101121.38;5068456;28;20063;-75
2022/01/08 01:23:13;;;;;;;8.13;2.47;;;;;;;-0.63;100.00;101120.31;5067093;28;20445;-72
2022/01/08 01:25:47;;;;;;;6.28;2.10;;;;;;;-0.71;100.00;101127.16;5051206;28;20470;-73
2022/01/08 01:28:28;;;;;;;5.30;2.53;;;;;;;-0.77;100.00;101130.56;5069537;28;20044;-73
2022/01/08 01:42:25;;;;;;;17.67;2.90;;;;;;;-0.83;100.00;101133.03;5066252;28;20053;-71
2022/01/08 01:47:45;;;;;;;7.25;2.85;;;;;;;-0.64;100.00;101142.13;5068348;28;20052;-72
2022/01/08 01:50:15;;;;;;;;;;;;;;;-0.60;100.00;101138.69;5049941;28;20056;-71
2022/01/08 01:52:44;;;;;;;6.38;2.40;;;;;;;-0.57;100.00;101149.25;5039587;28;19928;-71
2022/01/08 01:55:15;;;;;;;11.40;2.47;;;;;;;-0.48;100.00;101156.41;5067426;28;20139;-72
2022/01/08 01:57:48;;;;;;;7.15;2.65;;;;;;;-0.32;100.00;101154.94;5051822;28;20071;-71
2022/01/08 02:00:18;;;;;;;9.07;2.55;;;;;;;-0.27;100.00;101161.16;5067326;28;20048;-71
2022/01/08 02:02:46;;;;;;;10.27;2.65;;;;;;;-0.14;100.00;101150.88;5037935;28;20060;-71
2022/01/08 02:05:14;;;;;;;8.00;3.15;;;;;;;-0.06;100.00;101152.75;5066958;28;20163;-71
2022/01/08 02:07:46;;;;;;;8.52;3.22;;;;;;;0.06;100.00;101144.22;5068630;28;20483;-72
2022/01/08 02:10:18;;;;;;;12.25;3.75;;;;;;;0.11;100.00;101154.78;5071957;28;20056;-72
2022/01/08 02:12:47;;;;;;;11.05;3.13;;;;;;;0.07;100.00;101152.94;5065947;28;20059;-72
2022/01/08 02:15:15;;;;;;;7.80;3.10;;;;;;;0.05;100.00;101138.94;5068471;28;20118;-71
2022/01/08 02:17:56;;;;;;;6.78;2.60;;;;;;;0.02;100.00;101145.03;5064215;28;20553;-72
2022/01/08 02:20:30;;;;;;;5.30;2.22;;;;;;;0.05;100.00;101154.66;5070418;28;20137;-72
2022/01/08 02:23:01;;;;;;;9.38;2.60;;;;;;;0.04;100.00;101155.56;5038722;28;20047;-71
2022/01/08 02:25:33;;;;;;;10.27;2.53;;;;;;;0.09;100.00;101135.50;5071015;28;20048;-72
2022/01/08 02:28:06;;;;;;;6.90;2.60;;;;;;;0.00;100.00;101138.88;5051231;28;20492;-72
2022/01/08 02:30:58;;;;;;;5.50;2.58;;;;;;;0.09;100.00;101157.38;5068830;28;20098;-72
2022/01/08 02:33:27;;;;;;;6.07;2.50;;;;;;;0.15;100.00;101148.72;5048661;28;20084;-72
2022/01/08 02:36:16;;;;;;;8.90;2.50;;;;;;;0.14;100.00;101134.72;5065529;28;20049;-72
2022/01/08 02:38:50;;;;;;;10.05;2.60;;;;;;;0.28;100.00;101136.66;5065817;28;20052;-72
2022/01/08 02:41:22;;;;;;;8.45;3.40;;;;;;;0.25;100.00;101142.75;5050461;28;20136;-72
2022/01/08 02:43:53;;;;;;;14.68;2.90;;;;;;;0.39;100.00;101142.94;5063495;28;20072;-72
2022/01/08 02:46:31;;;;;;;9.95;3.55;;;;;;;0.35;100.00;101149.88;5067982;28;20057;-72
2022/01/08 02:49:01;;;;;;;5.50;2.85;;;;;;;0.26;100.00;101148.91;5064332;28;20080;-73
2022/01/08 02:52:07;;;;;;;5.55;2.55;;;;;;;0.27;100.00;101146.25;5066939;28;20091;-72
2022/01/08 02:54:52;;;;;;;7.07;2.50;;;;;;;0.18;100.00;101143.50;5066516;28;20056;-73
2022/01/08 02:57:25;;;;;;;;;;;;;;;0.09;100.00;101140.75;5067774;28;20897;-72
2022/01/08 03:00:16;;;;;;;6.40;2.47;;;;;;;0.16;100.00;101135.63;5065171;28;19924;-72
2022/01/08 03:02:49;;;;;;;6.68;2.60;;;;;;;0.23;100.00;101135.72;5052897;28;20062;-72
2022/01/08 03:05:25;;;;;;;6.38;2.17;;;;;;;0.21;100.00;101137.44;5065834;28;20072;-72
2022/01/08 03:07:59;;;;;;;10.35;2.78;;;;;;;0.26;100.00;101133.16;5066184;28;20050;-72
2022/01/08 03:10:27;;;;;;;;;;;;;;;0.38;100.00;101135.06;5064815;28;20190;-72
2022/01/08 03:12:57;;;;;;;7.18;2.15;;;;;;;0.31;100.00;101126.22;5065016;28;20023;-72
2022/01/08 03:15:29;;;;;;;8.10;2.80;;;;;;;0.28;100.00;101128.78;5063569;28;20121;-72
2022/01/08 03:18:09;;;;;;;9.13;2.42;;;;;;;0.28;100.00;101132.28;5068262;28;20075;-72
2022/01/08 03:20:49;;;;;;;3.55;2.20;;;;;;;0.36;100.00;101129.78;5049444;28;20090;-72
2022/01/08 03:23:39;;;;;;;6.35;2.78;;;;;;;0.41;100.00;101141.25;5067054;28;20056;-72
2022/01/08 03:26:12;;;;;;;10.50;2.55;;;;;;;0.43;100.00;101139.50;5064736;28;20682;-71
2022/01/08 03:28:52;;;;;;;9.38;2.75;;;;;;;0.38;100.00;101141.19;5049847;28;20056;-72
2022/01/08 03:31:23;;;;;;;9.07;2.55;;;;;;;0.33;100.00;101135.00;5061089;28;20053;-73
2022/01/08 03:33:54;;;;;;;7.35;2.83;;;;;;;0.27;100.00;101133.13;5067130;28;20080;-75
2022/01/08 03:36:25;;;;;;;6.75;2.65;;;;;;;0.17;100.00;101126.91;5064775;28;20559;-76
2022/01/08 03:38:54;;;;;;;8.27;2.33;;;;;;;0.15;100.00;101120.75;5065479;28;20606;-73
2022/01/08 03:41:23;;;;;;;7.32;2.25;;;;;;;0.11;100.00;101121.53;5065715;28;20102;-75
2022/01/08 03:43:51;;;;;;;4.78;2.10;;;;;;;0.04;100.00;101127.56;5067895;28;20058;-75
2022/01/08 03:46:20;;;;;;;8.55;2.80;;;;;;;0.04;100.00;101132.81;5065992;28;20071;-74
2022/01/08 03:49:23;;;;;;;;;;;;;;;-0.03;100.00;101131.81;5068379;28;20058;-74
2022/01/08 03:51:53;;;;;;;7.32;2.38;;;;;;;-0.07;100.00;101121.25;5067215;28;19956;-74
2022/01/08 03:54:22;;;;;;;5.72;2.58;;;;;;;-0.11;100.00;101125.56;5065269;28;20048;-74
2022/01/08 03:56:50;;;;;;;4.40;2.17;;;;;;;-0.13;100.00;101131.66;5067081;28;20055;-74
2022/01/08 03:59:18;;;;;;;4.50;2.65;;;;;;;-0.18;100.00;101128.94;5064914;28;20131;-74
2022/01/08 04:01:46;;;;;;;7.03;2.75;;;;;;;-0.18;100.00;101126.31;5066758;28;20052;-74
2022/01/08 04:04:15;;;;;;;6.53;2.70;;;;;;;-0.18;100.00;101128.94;5065328;28;20117;-74
2022/01/08 04:06:43;;;;;;;7.53;3.10;;;;;;;-0.17;100.00;101128.13;5067502;28;20075;-74
2022/01/08 04:09:11;;;;;;;7.43;2.30;;;;;;;-0.29;100.00;101130.50;5066614;28;20068;-74
2022/01/08 04:11:40;;;;;;;7.63;2.40;;;;;;;-0.35;100.00;101136.53;5066330;28;20055;-74
2022/01/08 04:14:08;;;;;;;5.80;2.20;;;;;;;-0.39;100.00;101132.97;5066446;28;20052;-74
2022/01/08 04:16:41;;;;;;;5.40;2.33;;;;;;;-0.50;100.00;101136.25;5067833;28;20052;-74
2022/01/08 04:19:09;;;;;;;6.28;3.00;;;;;;;-0.53;100.00;101138.81;5061563;28;20067;-74
2022/01/08 04:24:22;;;;;;;8.15;2.70;;;;;;;-0.48;100.00;101145.03;5062653;28;20052;-74
2022/01/08 04:26:53;;;;;;;10.68;2.83;;;;;;;-0.46;100.00;101152.09;5064963;28;20055;-74
2022/01/08 04:29:20;;;;;;;8.13;3.08;;;;;;;-0.45;100.00;101152.97;5064803;28;20050;-75
2022/01/08 04:31:48;;;;;;;6.57;2.63;;;;;;;-0.46;100.00;101162.56;5065699;28;20051;-74
2022/01/08 04:34:16;;;;;;;5.07;3.17;;;;;;;-0.33;100.00;101160.16;5062697;28;20062;-74
2022/01/08 04:36:43;;;;;;;10.73;2.95;;;;;;;-0.29;100.00;101165.50;5065248;28;20036;-74
2022/01/08 04:39:11;;;;;;;7.13;3.05;;;;;;;-0.39;100.00;101161.81;5066742;28;20393;-74
2022/01/08 04:41:43;;;;;;;9.52;3.13;;;;;;;-0.27;100.00;101163.78;5065556;28;20084;-74
2022/01/08 04:44:12;;;;;;;7.03;2.45;;;;;;;-0.35;100.00;101168.00;5064379;28;20144;-74
2022/01/08 04:46:41;;;;;;;5.60;3.08;;;;;;;-0.40;100.00;101167.91;5065746;28;20130;-74
2022/01/08 04:49:12;;;;;;;13.02;3.63;;;;;;;-0.24;100.00;101176.06;5068585;28;20048;-74
2022/01/08 04:51:39;;;;;;;9.15;2.80;;;;;;;-0.19;100.00;101179.63;5067275;28;20597;-74
2022/01/08 04:54:07;;;;;;;7.10;3.13;;;;;;;-0.23;100.00;101180.44;5072052;28;20212;-74
2022/01/08 04:56:35;;;;;;;9.23;4.55;;;;;;;-0.17;100.00;101170.06;5067700;28;20071;-74
2022/01/08 04:59:03;;;;;;;7.93;3.67;;;;;;;-0.23;100.00;101172.59;5068561;28;20367;-74
2022/01/08 05:01:33;;;;;;;7.53;2.80;;;;;;;-0.25;100.00;101166.44;5066384;28;20098;-74
2022/01/08 05:04:02;;;;;;;9.50;2.97;;;;;;;-0.38;100.00;101173.19;5066364;28;20049;-74
2022/01/08 05:06:30;;;;;;;9.60;3.17;;;;;;;-0.40;100.00;101162.66;5067041;28;20048;-74
2022/01/08 05:08:58;;;;;;;8.63;3.25;;;;;;;-0.51;100.00;101169.47;5069696;28;20059;-74
2022/01/08 05:11:27;;;;;;;8.57;3.72;;;;;;;-0.53;100.00;101175.53;5067991;28;20496;-74
2022/01/08 05:13:55;;;;;;;11.00;3.80;;;;;;;-0.53;100.00;101165.91;5067047;28;20068;-74
2022/01/08 05:16:24;;;;;;;8.80;3.65;;;;;;;-0.54;100.00;101158.94;5067829;28;20120;-74
2022/01/08 05:18:54;;;;;;;8.38;3.42;;;;;;;-0.57;100.00;101158.88;5070137;28;20083;-74
2022/01/08 05:21:25;;;;;;;6.13;2.92;;;;;;;-0.55;100.00;101157.16;5068521;28;20543;-74
2022/01/08 05:23:53;;;;;;;23.30;3.50;;;;;;;-0.50;100.00;101167.72;5068075;28;20052;-74
2022/01/08 05:26:22;;;;;;;7.85;2.97;;;;;;;-0.51;100.00;101184.31;5068162;28;20048;-74
2022/01/08 05:28:49;;;;;;;9.00;3.83;;;;;;;-0.54;100.00;101182.53;5069683;28;20048;-74
2022/01/08 05:31:21;;;;;;;10.10;3.65;;;;;;;-0.54;100.00;101179.03;5069745;28;20048;-74
2022/01/08 05:33:49;;;;;;;11.70;3.58;;;;;;;-0.50;100.00;101178.22;5066310;28;20174;-74
2022/01/08 05:36:19;;;;;;;9.23;3.33;;;;;;;-0.48;100.00;101181.75;5071795;28;20040;-74
2022/01/08 05:38:46;;;;;;;8.88;3.75;;;;;;;-0.54;100.00;101192.13;5067090;28;20051;-74
2022/01/08 05:41:14;;;;;;;8.98;4.35;;;;;;;-0.49;100.00;101187.84;5070162;28;20078;-74
2022/01/08 05:43:43;;;;;;;9.98;4.03;;;;;;;-0.49;100.00;101198.34;5066674;28;20332;-74
2022/01/08 05:46:13;;;;;;;7.35;3.22;;;;;;;-0.50;100.00;101193.94;5069584;28;20044;-74
2022/01/08 05:49:05;;;;;;;11.23;3.80;;;;;;;-0.40;100.00;101191.50;5067340;28;20078;-74
2022/01/08 05:51:36;;;;;;;9.80;4.22;;;;;;;-0.35;100.00;101190.72;5069522;28;20199;-72
2022/01/08 05:54:14;;;;;;;11.98;4.10;;;;;;;-0.26;100.00;101188.25;5066557;28;20052;-72
2022/01/08 05:56:45;;;;;;;9.40;4.22;;;;;;;-0.28;100.00;101176.88;5068766;28;20500;-72
2022/01/08 05:59:14;;;;;;;8.20;3.47;;;;;;;-0.32;100.00;101170.69;5065049;28;20052;-72
2022/01/08 06:01:48;;;;;;;10.30;4.38;;;;;;;-0.20;100.00;101184.00;5064035;28;20155;-72
2022/01/08 06:04:17;;;;;;;10.15;4.57;;;;;;;-0.04;100.00;101172.03;5047219;28;20045;-71
2022/01/08 06:06:51;;;;;;;11.48;4.28;;;;;;;-0.02;100.00;101170.34;5053978;28;20168;-71
2022/01/08 06:09:23;;;;;;;9.38;3.83;;;;;;;0.05;100.00;101158.19;5048038;28;20067;-72
2022/01/08 06:11:52;;;;;;;11.68;4.28;;;;;;;0.07;100.00;101163.44;5067693;28;20052;-72
2022/01/08 06:14:20;;;;;;;10.52;4.18;;;;;;;0.14;100.00;101149.59;5065475;28;20053;-72
2022/01/08 06:16:49;;;;;;;9.18;4.20;;;;;;;0.19;100.00;101161.03;5064639;28;20163;-71
2022/01/08 06:19:23;;;;;;;17.65;4.07;;;;;;;0.31;100.00;101157.72;5049208;28;20184;-71
2022/01/08 06:22:03;;;;;;;9.43;3.70;;;;;;;0.29;100.00;101148.91;5064952;28;20135;-72
2022/01/08 06:24:32;;;;;;;7.18;3.10;;;;;;;0.26;100.00;101160.25;5069157;28;20127;-72
2022/01/08 06:27:05;;;;;;;9.30;3.45;;;;;;;0.21;100.00;101142.69;5054772;28;20060;-75
2022/01/08 06:29:38;;;;;;;11.35;3.25;;;;;;;0.18;100.00;101148.75;5067419;28;20058;-75
2022/01/08 06:32:14;;;;;;;9.57;3.13;;;;;;;0.25;100.00;101148.00;5068030;28;20079;-71
2022/01/08 06:34:43;;;;;;;6.35;3.03;;;;;;;0.20;100.00;101146.16;5068829;28;20548;-71
2022/01/08 06:37:16;;;;;;;4.50;2.47;;;;;;;0.30;100.00;101138.44;5067611;28;20036;-71
2022/01/08 06:39:45;;;;;;;13.15;4.28;;;;;;;0.33;100.00;101137.63;5067597;28;20055;-74
2022/01/08 06:42:13;;;;;;;9.75;3.30;;;;;;;0.40;100.00;101138.59;5065273;28;20081;-74
2022/01/08 06:44:41;;;;;;;8.27;3.47;;;;;;;0.43;100.00;101138.66;5066662;28;20056;-74
2022/01/08 06:47:10;;;;;;;8.30;3.75;;;;;;;0.42;100.00;101131.63;5067082;28;20056;-74
2022/01/08 06:49:43;;;;;;;13.43;3.30;;;;;;;0.49;100.00;101138.72;5066323;28;20064;-74
2022/01/08 06:52:11;;;;;;;13.82;4.35;;;;;;;0.41;100.00;101137.72;5064787;28;20599;-75
2022/01/08 06:54:40;;;;;;;5.80;2.70;;;;;;;0.44;100.00;101135.13;5066241;28;20056;-75
2022/01/08 06:57:09;;;;;;;8.88;3.75;;;;;;;0.53;100.00;101130.03;5065786;28;20067;-75
2022/01/08 07:00:02;;;;;;;12.77;3.83;;;;;;;0.51;100.00;101127.38;5065393;28;20056;-75
2022/01/08 07:02:30;;;;;;;11.10;3.92;;;;;;;0.62;100.00;101127.50;5066604;28;20345;-75
2022/01/08 07:04:58;;;;;;;9.38;3.90;;;;;;;0.64;100.00;101125.78;5066896;28;21296;-75
2022/01/08 07:07:27;;;;;;;12.13;3.35;;;;;;;0.74;100.00;101116.28;5065216;28;20408;-75
2022/01/08 07:10:00;;;;;;;10.32;4.00;;;;;;;0.81;100.00;101130.38;5067762;28;20048;-75
2022/01/08 07:12:27;;;;;;;10.88;4.28;;;;;;;0.99;100.00;101124.44;5064722;28;20043;-75
2022/01/08 07:14:55;;;;;;;6.70;3.28;;;;;;;0.90;100.00;101119.97;5067869;28;20052;-75
2022/01/08 07:17:23;;;;;;;14.52;3.80;;;;;;;1.03;100.00;101121.00;5066911;28;20058;-76
2022/01/08 07:19:51;;;;;;;9.40;3.30;;;;;;;0.98;100.00;101117.44;5065538;28;20130;-76
2022/01/08 07:22:19;;;;;;;9.30;3.55;;;;;;;1.14;100.00;101119.38;5063737;28;20075;-76
2022/01/08 07:24:47;;;;;;;11.88;4.28;;;;;;;1.25;100.00;101114.25;5065007;28;20048;-76
2022/01/08 07:27:16;;;;;;;10.27;3.78;;;;;;;1.23;100.00;101116.84;5068604;28;20048;-76
2022/01/08 07:29:43;;;;;;;10.32;4.00;;;;;;;1.24;100.00;101108.13;5064391;28;20911;-77
2022/01/08 07:32:13;;;;;;;6.22;2.80;;;;;;;1.39;100.00;101117.88;5068223;28;20079;-76
2022/01/08 07:35:06;;;;;;;6.57;3.38;;;;;;;1.39;100.00;101109.13;5063917;28;20059;-76
2022/01/08 07:37:33;;;;;;;5.97;3.05;;;;;;;1.44;100.00;101110.06;5068569;28;20444;-76
2022/01/08 07:40:01;;;;;;;11.30;3.60;;;;;;;1.52;100.00;101105.75;5062998;28;20051;-76
2022/01/08 07:42:30;;;;;;;10.45;3.97;;;;;;;1.53;100.00;101098.72;5066049;28;20439;-76
2022/01/08 07:44:59;;;;;;;8.50;3.35;;;;;;;1.53;100.00;101099.59;5063886;28;20526;-75
2022/01/08 07:47:27;;;;;;;11.65;3.70;;;;;;;1.47;100.00;101091.69;5064959;28;20048;-75
2022/01/08 07:49:55;;;;;;;7.05;3.25;;;;;;;1.54;100.00;101092.63;5068081;28;20059;-75
2022/01/08 07:52:23;;;;;;;6.90;3.60;;;;;;;1.58;100.00;101102.28;5066570;28;20052;-75
2022/01/08 07:54:51;;;;;;;11.15;3.53;;;;;;;1.54;100.00;101104.00;5064480;28;20098;-75
2022/01/08 07:57:19;;;;;;;7.00;3.08;;;;;;;1.51;100.00;101100.47;5068560;28;20053;-75
2022/01/08 07:59:48;;;;;;;12.10;3.92;;;;;;;1.61;100.00;101100.56;5064985;28;20050;-75
2022/01/08 08:02:16;;;;;;;9.48;3.00;;;;;;;1.61;100.00;101083.91;5065771;28;20052;-76
2022/01/08 08:04:44;;;;;;;9.90;3.20;;;;;;;1.66;100.00;101084.81;5066499;28;20157;-76
2022/01/08 08:07:13;;;;;;;10.55;3.42;;;;;;;1.75;100.00;101082.25;5066524;28;20128;-75
2022/01/08 08:09:42;;;;;;;7.82;3.20;;;;;;;1.67;100.00;101073.44;5068134;28;20138;-75
2022/01/08 08:12:09;;;;;;;8.30;3.08;;;;;;;1.66;100.00;101084.81;5067653;28;22139;-75
2022/01/08 08:14:37;;;;;;;8.40;3.45;;;;;;;1.64;100.00;101070.78;5066699;28;20048;-74
2022/01/08 08:17:07;;;;;;;7.55;3.33;;;;;;;1.66;100.00;101063.78;5063696;28;20090;-75
2022/01/08 08:19:35;;;;;;;10.63;4.65;;;;;;;1.65;100.00;101068.16;5066574;28;20399;-75
2022/01/08 08:22:05;;;;;;;7.30;3.22;;;;;;;1.64;100.00;101066.41;5064714;28;20090;-68
2022/01/08 08:24:38;;;;;;;11.73;3.92;;;;;;;1.62;100.00;101062.00;5042199;28;20138;-68
2022/01/08 08:27:14;;;;;;;12.27;4.75;;;;;;;1.64;100.00;101053.25;5052689;28;20153;-69
2022/01/08 08:29:51;;;;;;;14.07;5.47;;;;;;;1.63;100.00;101069.88;5070441;28;20056;-68
2022/01/08 08:32:23;;;;;;;13.70;5.38;;;;;;;1.65;100.00;101064.63;5068159;28;20420;-69
2022/01/08 08:34:53;;;;;;;14.98;5.63;;;;;;;1.67;100.00;101044.50;5068641;28;20056;-69
2022/01/08 08:37:21;;;;;;;16.63;7.30;;;;;;;1.65;100.00;101051.47;5069478;28;20093;-69
2022/01/08 08:39:49;;;;;;;12.57;6.03;;;;;;;1.63;100.00;101040.94;5072898;28;20519;-68
2022/01/08 08:42:17;;;;;;;18.25;8.23;;;;;;;1.65;100.00;101043.59;5068178;28;20142;-68
2022/01/08 08:44:44;;;;;;;15.88;7.85;;;;;;;1.66;100.00;101040.97;5068428;28;20490;-68
2022/01/08 08:47:13;;;;;;;16.92;8.90;;;;;;;1.71;100.00;101037.53;5070859;28;20044;-70
2022/01/08 08:49:43;;;;;;;16.77;8.43;;;;;;;1.72;100.00;101037.53;5069431;28;20130;-69
2022/01/08 08:52:10;;;;;;;19.25;9.07;;;;;;;1.71;100.00;101033.13;5067485;28;20055;-68
2022/01/08 08:54:41;;;;;;;18.33;8.63;;;;;;;1.72;100.00;101031.38;5070403;28;20717;-68
2022/01/08 08:57:10;;;;;;;20.55;9.18;;;;;;;1.78;100.00;101027.03;5068518;28;20051;-69
2022/01/08 08:59:38;;;;;;;19.85;10.07;;;;;;;1.77;100.00;101025.28;5069245;28;20056;-68
2022/01/08 09:02:06;;;;;;;17.77;9.48;;;;;;;1.78;100.00;101021.78;5072586;28;20071;-68
2022/01/08 09:04:59;;;;;;;18.90;10.75;;;;;;;1.85;100.00;101035.84;5067478;28;20420;-68
2022/01/08 09:07:27;;;;;;;25.67;11.95;;;;;;;1.88;100.00;101029.75;5070487;28;20509;-68
2022/01/08 09:09:55;;;;;;;17.20;10.68;;;;;;;1.86;100.00;101024.47;5067609;28;20539;-68
2022/01/08 09:12:25;;;;;;;19.58;12.32;;;;;;;1.88;100.00;101006.94;5068848;28;20139;-69
2022/01/08 09:14:52;;;;;;;20.48;11.48;;;;;;;1.93;100.00;100994.69;5068013;28;20056;-68
2022/01/08 09:17:21;;;;;;;23.58;11.93;;;;;;;1.94;100.00;100991.19;5071156;28;20079;-72
2022/01/08 09:19:49;;;;;;;23.10;11.43;;;;;;;1.98;100.00;100994.72;5071892;28;20428;-72
2022/01/08 09:22:18;;;;;;;20.83;12.20;;;;;;;2.02;100.00;100991.22;5068846;28;20127;-72
2022/01/08 09:25:12;;;;;;;25.00;11.05;;;;;;;2.05;100.00;100976.31;5068967;28;20084;-72
2022/01/08 09:28:04;;;;;;;21.15;12.73;;;;;;;2.12;100.00;100965.81;5068328;28;20129;-72
2022/01/08 09:30:32;;;;;;;16.92;10.43;;;;;;;2.17;100.00;100962.34;5067208;28;20188;-72
2022/01/08 09:33:00;;;;;;;23.35;12.20;;;;;;;2.15;100.00;100963.22;5067493;28;20048;-72
2022/01/08 09:35:28;;;;;;;22.13;11.98;;;;;;;2.15;100.00;100966.72;5068149;28;20145;-71
2022/01/08 09:37:57;;;;;;;22.63;11.75;;;;;;;2.15;100.00;100969.34;5069772;28;20272;-72
2022/01/08 09:40:25;;;;;;;19.40;12.27;;;;;;;2.18;100.00;100961.47;5068139;28;20129;-71
2022/01/08 09:42:53;;;;;;;26.08;14.35;;;;;;;2.15;100.00;100961.44;5067455;28;20178;-72
2022/01/08 09:45:21;;;;;;;29.23;13.40;;;;;;;2.16;100.00;100954.41;5070202;28;20052;-71
2022/01/08 09:47:49;;;;;;;23.92;12.68;;;;;;;2.17;100.00;100940.41;5067190;28;20052;-72
2022/01/08 09:50:17;;;;;;;25.02;12.52;;;;;;;2.20;100.00;100943.91;5069710;28;20748;-71
2022/01/08 09:52:46;;;;;;;22.15;12.75;;;;;;;2.24;100.00;100932.50;5063637;28;20288;-71
2022/01/08 09:55:15;;;;;;;19.00;12.82;;;;;;;2.17;100.00;100925.47;5068842;28;20488;-71
2022/01/08 09:57:43;;;;;;;19.60;11.23;;;;;;;2.22;100.00;100926.38;5069528;28;20055;-71
2022/01/08 10:00:14;;;;;;;25.17;12.60;;;;;;;2.26;100.00;100911.44;5071219;28;20059;-71
2022/01/08 10:02:44;;;;;;;24.10;12.25;;;;;;;2.24;100.00;100906.19;5067624;28;20482;-71
2022/01/08 10:05:14;;;;;;;27.20;11.40;;;;;;;2.30;100.00;100904.44;5068081;28;20157;-71
2022/01/08 10:07:44;;;;;;;19.80;11.82;;;;;;;2.33;100.00;100897.41;5064818;28;20121;-71
2022/01/08 10:10:15;;;;;;;22.15;11.02;;;;;;;2.41;100.00;100884.28;5068844;28;20052;-71
2022/01/08 10:12:48;;;;;;;21.92;10.85;;;;;;;2.42;100.00;100886.94;5067044;28;20060;-71
2022/01/08 10:18:09;;;;;;;23.23;10.88;;;;;;;2.48;100.00;100856.22;5070529;28;20056;-72
2022/01/08 10:20:39;;;;;;;18.35;10.27;;;;;;;2.54;100.00;100849.19;5068287;28;20193;-72
2022/01/08 10:23:12;;;;;;;31.02;11.50;;;;;;;2.54;100.00;100838.66;5065682;28;20106;-72
2022/01/08 10:25:43;;;;;;;21.83;10.13;;;;;;;2.55;100.00;100843.03;5066731;28;20068;-71
2022/01/08 10:28:13;;;;;;;19.60;9.65;;;;;;;2.57;100.00;100820.22;5069997;28;20105;-71
2022/01/08 10:30:40;;;;;;;22.95;8.73;;;;;;;2.69;100.00;100813.19;5065370;28;20167;-71
2022/01/08 10:33:09;;;;;;;21.20;9.15;;;;;;;2.67;100.00;100809.66;5067798;28;20792;-72
2022/01/08 10:35:51;;;;;;;21.10;8.82;;;;;;;2.73;100.00;100796.50;5066602;28;20048;-72
2022/01/08 10:38:19;;;;;;;16.80;8.27;;;;;;;2.85;100.00;100806.16;5065173;28;20135;-72
2022/01/08 10:40:46;;;;;;;16.60;8.48;;;;;;;2.86;100.00;100802.63;5066293;28;20495;-71
2022/01/08 10:43:27;;;;;;;18.70;7.88;;;;;;;2.94;100.00;100785.91;5069034;28;20143;-71
2022/01/08 10:45:57;;;;;;;16.83;7.50;;;;;;;2.98;100.00;100782.41;5069065;28;20101;-71
2022/01/08 10:48:30;;;;;;;18.15;5.97;;;;;;;3.10;100.00;100770.06;5067551;28;20156;-71
2022/01/08 10:51:17;;;;;;;13.85;6.65;;;;;;;3.17;100.00;100770.06;5066901;28;20049;-72
2022/01/08 10:54:12;;;;;;;16.17;6.10;;;;;;;3.28;100.00;100753.34;5066544;28;20138;-73
2022/01/08 10:56:43;;;;;;;17.08;6.30;;;;;;;3.29;100.00;100753.31;5067492;28;20254;-72
2022/01/08 10:59:15;;;;;;;13.20;5.00;;;;;;;3.38;100.00;100746.28;5069893;28;20052;-74
2022/01/08 11:01:55;;;;;;;12.52;5.10;;;;;;;3.42;100.00;100742.72;5065033;28;20048;-75
2022/01/08 11:04:38;;;;;;;9.43;3.90;;;;;;;3.50;100.00;100717.19;5065520;28;20063;-73
2022/01/08 11:07:08;;;;;;;;;;;;;;;3.52;100.00;100715.41;5067166;28;20497;-71
2022/01/08 11:09:38;;;;;;;12.63;4.07;;;;;;;3.50;100.00;100704.88;5066269;28;20222;-73
2022/01/08 11:12:08;;;;;;;15.30;5.18;;;;;;;3.45;100.00;100701.38;5063727;28;20076;-73
2022/01/08 11:15:02;;;;;;;11.68;4.95;;;;;;;3.44;100.00;100686.44;5070908;28;20062;-73
2022/01/08 11:17:33;;;;;;;6.80;3.30;;;;;;;3.48;100.00;100682.91;5066827;28;20048;-74
2022/01/08 11:20:05;;;;;;;7.95;3.40;;;;;;;3.55;100.00;100671.41;5068699;28;20052;-74
2022/01/08 11:22:35;;;;;;;12.00;3.60;;;;;;;3.50;100.00;100667.06;5066959;28;20165;-74
2022/01/08 11:25:06;;;;;;;13.38;4.07;;;;;;;3.54;100.00;100663.50;5067944;28;20052;-75
2022/01/08 11:27:46;;;;;;;11.45;4.30;;;;;;;3.55;100.00;100662.63;5063080;28;20049;-76
2022/01/08 11:30:21;;;;;;;7.07;3.95;;;;;;;3.49;100.00;100660.03;5062950;28;20313;-76
2022/01/08 11:32:51;;;;;;;7.65;3.50;;;;;;;3.48;100.00;100632.78;5063582;28;20553;-76
2022/01/08 11:35:42;;;;;;;6.82;3.33;;;;;;;3.52;100.00;100637.16;5063887;28;20060;-76
2022/01/08 11:38:19;;;;;;;14.05;5.43;;;;;;;3.46;100.00;100621.34;5063872;28;20059;-76
2022/01/08 11:40:49;;;;;;;9.23;3.92;;;;;;;3.51;100.00;100616.06;5068164;28;20079;-78
2022/01/08 11:43:19;;;;;;;9.55;4.43;;;;;;;3.46;100.00;100618.72;5066625;28;20052;-78
2022/01/08 11:45:53;;;;;;;11.57;5.00;;;;;;;3.45;100.00;100590.56;5067686;28;20625;-77
2022/01/08 11:48:26;;;;;;;11.88;4.55;;;;;;;3.39;100.00;100589.75;5068298;28;20093;-78
2022/01/08 11:50:56;;;;;;;13.53;5.17;;;;;;;3.31;100.00;100582.75;5068597;28;20051;-77
2022/01/08 11:53:25;;;;;;;10.68;4.32;;;;;;;3.33;100.00;100557.25;5064322;28;20659;-76
2022/01/08 11:55:56;;;;;;;8.68;4.03;;;;;;;3.27;100.00;100549.41;5066617;28;20048;-75
2022/01/08 11:58:26;;;;;;;8.35;3.90;;;;;;;3.32;100.00;100547.59;5066768;28;20094;-75